Terminal Aerodrome Forecast
Issued by NWS

Current Version | Previous Version | Text Only | Print | Product List | Glossary Off
Versions: 1 2 3 4 5 6 7 8 9 10 11 12 13 14 15 16 17 18 19

000
FTUS41 KILN 300538
TAFLCK
TAF
KLCK 300538Z 3006/3106 00000KT 4SM BR BKN150
     FM300800 31004KT 4SM BR SCT200
     FM301200 31007KT P6SM FEW200
     FM301500 30010G17KT P6SM SCT040
     FM302200 VRB04KT P6SM SKC=

USA.gov is the U.S. government's official web portal to all federal, state and local government web resources and services.